Welcome to Trans World Virtual Airlines!

Welcome TWVA's Newest Pilot:

TWA2313 Bryan Heald

Not a Trans World pilot yet?
Apply Now!




Sign-in with your pilot id or email, or register

Flight TWA7859

  • Submitted By: Austin Hill
  • Departure Airport: Ronald Reagan Washington National Airport (KDCA)
  • Arrival Airport: Kansas City International Airport (KMCI)
  • Aircraft: E170 (N173TE)
  • Flight Time: 03.07
  • Date Submitted: 10/07/2018
  • Route: VORA CSN HNN VHP CMI BRL DMKJS OXIBE MCI
  • Status: Accepted
Flight Details
Gross Revenue:
(65 load / $ 265.00 per unit
$ 17, 225.00
Fuel Cost:
(11288 fuel used @ 0.8 / unit)
$ 9, 030.40

Additional Log Information:

View Log

FS[21:56] Aircraft Title - Embraer 170 TWA
FS[21:56] Aircraft Model - E-170
FS[21:56] Flight Number TWA7859
FS[21:56] Departure KDCA
FS[21:56] Destination KMCI
FS[21:56] Boarding
FS[22:01] Pushing Back
FS[22:05] Taxiing to Runway
FS[22:09] Taking Off
FS[22:09] Taking Off
FS[22:09] 152kts
FS[22:09] pitch angle 5 degrees
FS[22:09] 16262 (lbs) of fuel onboard
FS[22:10] Climbing
FS[22:29] TOC Reached
FS[22:29] Cruise 32000
FS[23:58] TOD Reached
FS[23:58] Descending
FS[00:22] On Approach
FS[00:51] Landing Rate -123fpm
FS[00:51] 5736 (lbs) of fuel onboard
FS[00:51] pitch angle 5 degrees
FS[00:51] Taxiing to Gate
FS[00:57] Arrived
FS[01:04] Max Sim Rate: 1x
FS[01:04] kACARS_Free Version 1.0.1.1

Comments

Commenter Comment
Austin Hill KDCA 071952Z 17007KT 10SM FEW020 27/22 A3020 // KMCI 072230Z 14007KT 5SM -RA BR OVC008 18/17 A2998

Route Map